Time;durP1;ratioP1;P1;durP2;ratioP2;P2;SDS_P1;SDS_P2;PMS_P1;PMS_P2;Temp;Humidity;BMP_temperature;BMP_pressure;BME280_temperature;BME280_humidity;BME280_pressure;Samples;Min_cycle;Max_cycle;Signal;HPM_P1;HPM_P2
2022/06/04 00:00:30;;;;;;;10.90;7.25;;;;;;;24.64;55.95;99870.31;5030512;28;20029;-86
2022/06/04 00:02:56;;;;;;;14.50;6.82;;;;;;;23.98;55.84;99816.69;5031980;28;20045;-86
2022/06/04 00:05:26;;;;;;;11.18;6.85;;;;;;;23.86;55.78;99767.53;5031782;28;20465;-86
2022/06/04 00:07:52;;;;;;;12.70;6.57;;;;;;;23.75;56.26;99757.72;5031766;28;20057;-86
2022/06/04 00:15:50;;;;;;;11.32;6.68;;;;;;;24.16;56.29;99831.63;5032162;28;20029;-86
2022/06/04 00:18:17;;;;;;;12.73;6.68;;;;;;;24.25;56.39;99829.25;5031937;28;20029;-85
2022/06/04 00:20:43;;;;;;;10.95;7.15;;;;;;;24.37;56.48;99841.50;5031418;28;20028;-86
2022/06/04 00:23:10;;;;;;;10.63;6.70;;;;;;;23.71;56.45;99735.03;5031588;28;20025;-86
2022/06/04 00:25:38;;;;;;;11.98;7.03;;;;;;;24.30;56.39;99840.94;5030339;28;20112;-86
2022/06/04 00:28:06;;;;;;;9.18;6.65;;;;;;;23.81;56.58;99780.97;5030693;28;20028;-86
2022/06/04 00:30:31;;;;;;;12.07;6.70;;;;;;;24.20;56.53;99831.94;5031590;28;20033;-86
2022/06/04 00:32:57;;;;;;;14.02;6.95;;;;;;;23.86;56.87;99782.88;5031645;28;20096;-87
2022/06/04 00:35:24;;;;;;;12.45;6.93;;;;;;;24.12;57.03;99827.03;5030325;28;20478;-86
2022/06/04 00:37:50;;;;;;;9.18;7.28;;;;;;;23.86;57.11;99807.97;5031612;28;20097;-86
2022/06/04 00:40:33;;;;;;;10.82;7.10;;;;;;;23.79;56.84;99785.81;5031453;28;20033;-86
2022/06/04 00:42:59;;;;;;;11.88;7.18;;;;;;;23.79;57.22;99793.91;5031782;28;20025;-86
2022/06/04 00:45:36;;;;;;;13.05;7.43;;;;;;;24.04;57.06;99812.13;5030056;28;20105;-87
2022/06/04 00:48:08;;;;;;;11.02;7.32;;;;;;;23.29;57.05;99706.13;5030076;28;20029;-87
2022/06/04 00:50:37;;;;;;;11.95;7.10;;;;;;;23.76;57.08;99800.59;5030370;28;20029;-86
2022/06/04 00:53:06;;;;;;;15.50;7.40;;;;;;;23.96;57.33;99809.94;5030228;28;20076;-86
2022/06/04 00:56:18;;;;;;;13.48;7.50;;;;;;;23.88;57.23;99791.53;5031327;28;20107;-86
2022/06/04 00:58:56;;;;;;;15.25;7.82;;;;;;;23.92;57.26;99806.13;5030370;28;20027;-87
2022/06/04 01:01:29;;;;;;;15.50;7.32;;;;;;;23.35;57.25;99723.16;5031563;28;20079;-86
2022/06/04 01:04:08;;;;;;;14.38;7.93;;;;;;;23.38;57.19;99717.25;5033634;28;20057;-86
2022/06/04 01:06:58;;;;;;;9.40;6.80;;;;;;;23.52;57.54;99728.41;5034314;28;20417;-86
2022/06/04 01:10:14;;;;;;;12.93;8.07;;;;;;;23.98;57.32;99797.00;5034317;28;20020;-86
2022/06/04 01:13:18;;;;;;;12.57;6.55;;;;;;;23.81;57.24;99778.28;5023174;28;20064;-86
2022/06/04 01:16:11;;;;;;;11.48;7.20;;;;;;;23.90;57.50;99790.19;5035431;28;20477;-86
2022/06/04 01:19:01;;;;;;;12.57;6.47;;;;;;;23.93;57.28;99788.88;5034998;28;20057;-86
2022/06/04 01:21:47;;;;;;;11.93;7.97;;;;;;;23.89;57.37;99785.06;5033934;28;20494;-86
2022/06/04 01:24:22;;;;;;;11.35;7.47;;;;;;;23.88;57.51;99786.13;5035073;28;20021;-86
2022/06/04 01:27:09;;;;;;;12.75;7.20;;;;;;;23.64;57.50;99758.72;5033743;28;20021;-86
2022/06/04 01:29:43;;;;;;;9.18;6.97;;;;;;;23.38;57.97;99731.53;5035334;28;20487;-86
2022/06/04 01:32:18;;;;;;;12.25;7.60;;;;;;;23.07;57.45;99678.47;5035463;28;20083;-86
2022/06/04 01:34:51;;;;;;;15.18;7.70;;;;;;;23.71;57.55;99781.69;5035279;28;20029;-86
2022/06/04 01:37:26;;;;;;;13.63;7.25;;;;;;;22.93;57.73;99677.25;5043758;28;20030;-85
2022/06/04 01:42:43;;;;;;;10.30;7.80;;;;;;;22.86;58.00;99698.97;5042231;28;20040;-87
2022/06/04 01:45:13;;;;;;;12.45;7.65;;;;;;;23.41;57.97;99790.28;5034230;28;20034;-86
2022/06/04 01:47:41;;;;;;;10.10;7.35;;;;;;;23.41;58.12;99786.78;5039470;28;20026;-86
2022/06/04 01:50:12;;;;;;;15.40;7.78;;;;;;;23.40;58.21;99796.75;5048761;28;20009;-86
2022/06/04 01:52:39;;;;;;;;;;;;;;;23.18;58.78;99798.69;5053443;28;20554;-86
2022/06/04 01:55:11;;;;;;;15.82;7.93;;;;;;;22.50;58.15;99665.47;5046980;28;19956;-87
2022/06/04 01:57:51;;;;;;;17.05;8.35;;;;;;;23.32;58.28;99797.22;5046330;28;20113;-85
2022/06/04 02:00:21;;;;;;;13.30;7.43;;;;;;;23.04;58.20;99760.59;5044718;28;20068;-85
2022/06/04 02:03:12;;;;;;;12.35;7.10;;;;;;;23.20;58.86;99799.25;5042170;28;20538;-86
2022/06/04 02:05:44;;;;;;;14.05;8.43;;;;;;;22.50;58.47;99687.00;5030244;28;20041;-86
2022/06/04 02:08:13;;;;;;;14.35;7.95;;;;;;;23.27;58.36;99807.94;5032759;28;20057;-86
2022/06/04 02:10:51;;;;;;;10.60;7.28;;;;;;;22.72;58.60;99744.31;5033606;28;20030;-86
2022/06/04 02:13:17;;;;;;;13.38;7.55;;;;;;;22.71;58.46;99720.34;5034110;28;20037;-86
2022/06/04 02:15:47;;;;;;;13.52;7.72;;;;;;;22.46;58.32;99678.63;5042997;28;20501;-85
2022/06/04 02:18:13;;;;;;;12.65;7.80;;;;;;;22.76;58.38;99731.97;5044715;28;20026;-85
2022/06/04 02:20:38;;;;;;;15.90;8.23;;;;;;;22.92;58.28;99769.84;5033974;28;20098;-86
2022/06/04 02:23:04;;;;;;;13.40;8.10;;;;;;;23.23;58.15;99814.91;5033355;28;20601;-86
2022/06/04 02:25:30;;;;;;;13.00;8.40;;;;;;;22.80;58.24;99737.69;5033381;28;20032;-86
2022/06/04 02:27:56;;;;;;;13.77;7.43;;;;;;;22.88;58.13;99742.63;5032009;28;20017;-86
2022/06/04 02:30:24;;;;;;;12.30;7.65;;;;;;;22.61;58.12;99693.31;5033478;28;20418;-86
2022/06/04 02:32:58;;;;;;;14.13;7.85;;;;;;;23.27;58.01;99799.88;5033450;28;20032;-86
2022/06/04 02:35:36;;;;;;;12.98;8.15;;;;;;;23.24;57.98;99800.38;5031812;28;20457;-86
2022/06/04 02:38:22;;;;;;;15.95;8.27;;;;;;;22.88;58.14;99745.31;5031878;28;20560;-86
2022/06/04 02:41:01;;;;;;;11.80;7.53;;;;;;;23.20;58.09;99796.56;5031990;28;20112;-86
2022/06/04 02:43:29;;;;;;;13.30;7.63;;;;;;;23.17;58.29;99802.47;5031912;28;20127;-86
2022/06/04 02:46:20;;;;;;;10.93;7.50;;;;;;;23.15;58.09;99801.91;5031870;28;20030;-86
2022/06/04 02:49:08;;;;;;;13.07;8.02;;;;;;;22.65;58.34;99742.88;5032015;28;20025;-86
2022/06/04 02:51:38;;;;;;;13.63;8.13;;;;;;;22.78;58.38;99767.53;5031918;28;20083;-86
2022/06/04 02:54:10;;;;;;;15.93;8.10;;;;;;;21.97;58.41;99663.44;5032795;28;20060;-86
2022/06/04 02:56:40;;;;;;;14.18;8.52;;;;;;;22.38;58.14;99705.16;5033018;28;20033;-86
2022/06/04 02:59:08;;;;;;;16.15;8.13;;;;;;;23.10;58.18;99813.44;5031629;28;20112;-86
2022/06/04 03:01:39;;;;;;;16.48;9.40;;;;;;;23.10;58.20;99810.75;5031426;28;20029;-86
2022/06/04 03:04:06;;;;;;;12.55;8.23;;;;;;;22.41;58.14;99699.28;5032845;28;20037;-86
2022/06/04 03:06:32;;;;;;;15.93;9.73;;;;;;;23.06;58.41;99814.19;5032588;28;20581;-86
2022/06/04 03:09:00;;;;;;;12.70;8.60;;;;;;;22.58;58.55;99748.44;5031609;28;20560;-86
2022/06/04 03:11:26;;;;;;;13.32;9.13;;;;;;;22.41;58.46;99712.72;5032869;28;20029;-86
2022/06/04 03:13:52;;;;;;;15.65;8.38;;;;;;;22.86;58.47;99776.25;5032950;28;20025;-86
2022/06/04 03:16:17;;;;;;;15.38;8.80;;;;;;;22.99;58.25;99797.41;5031372;28;20052;-87
2022/06/04 03:18:44;;;;;;;17.38;8.60;;;;;;;22.77;58.19;99771.28;5032502;28;20029;-86
2022/06/04 03:21:10;;;;;;;10.85;7.65;;;;;;;22.98;58.10;99795.78;5031464;28;20029;-86
2022/06/04 03:23:36;;;;;;;12.75;8.45;;;;;;;23.23;58.06;99838.34;5031615;28;20022;-86
2022/06/04 03:26:02;;;;;;;12.82;8.27;;;;;;;23.13;57.99;99807.53;5032427;28;20033;-86
2022/06/04 03:28:27;;;;;;;12.15;8.55;;;;;;;23.21;57.81;99838.59;5031538;28;20021;-86
2022/06/04 03:30:53;;;;;;;13.40;8.32;;;;;;;22.46;57.86;99720.88;5032809;28;20047;-86
2022/06/04 03:33:18;;;;;;;11.98;8.02;;;;;;;22.89;57.79;99773.88;5031182;28;20024;-86
2022/06/04 03:35:44;;;;;;;14.98;8.45;;;;;;;23.15;57.62;99809.97;5032518;28;20052;-86
2022/06/04 03:38:10;;;;;;;11.85;8.52;;;;;;;22.70;58.05;99773.34;5031124;28;20059;-86
2022/06/04 03:40:36;;;;;;;15.25;8.20;;;;;;;22.70;57.59;99767.97;5031089;28;20022;-86
2022/06/04 03:43:02;;;;;;;13.15;7.78;;;;;;;23.28;57.96;99844.59;5032192;28;20033;-86
2022/06/04 03:45:28;;;;;;;13.57;8.32;;;;;;;22.75;57.78;99775.28;5032151;28;20040;-86
2022/06/04 03:47:58;;;;;;;11.93;8.35;;;;;;;23.41;57.86;99846.06;5032290;28;20438;-86
2022/06/04 03:50:27;;;;;;;12.98;7.65;;;;;;;22.82;57.59;99741.75;5032033;28;20425;-86
2022/06/04 03:52:53;;;;;;;12.05;7.88;;;;;;;23.03;57.46;99758.94;5030622;28;20036;-86
2022/06/04 03:55:19;;;;;;;9.98;7.60;;;;;;;23.41;57.40;99817.25;5031622;28;20497;-86
2022/06/04 03:57:50;;;;;;;13.73;8.80;;;;;;;23.80;57.39;99854.84;5030235;28;20605;-87
2022/06/04 04:00:27;;;;;;;12.23;7.85;;;;;;;23.85;57.33;99859.47;5032014;28;20029;-86
2022/06/04 04:02:57;;;;;;;10.65;8.13;;;;;;;23.51;57.43;99802.22;5031882;28;20031;-86
2022/06/04 04:05:30;;;;;;;13.32;9.05;;;;;;;23.90;57.22;99863.00;5031961;28;20060;-86
2022/06/04 04:07:56;;;;;;;11.52;8.77;;;;;;;23.91;57.42;99871.91;5030966;28;20104;-86
2022/06/04 04:10:25;;;;;;;9.75;8.77;;;;;;;23.34;57.72;99807.75;5030552;28;20095;-86
2022/06/04 04:12:51;;;;;;;17.92;8.48;;;;;;;23.85;57.81;99845.97;5030599;28;20033;-86
2022/06/04 04:15:17;;;;;;;11.70;7.65;;;;;;;23.92;57.61;99858.19;5030579;28;20022;-86
2022/06/04 04:17:43;;;;;;;9.20;8.10;;;;;;;22.89;57.82;99687.69;5030456;28;20036;-86
2022/06/04 04:20:22;;;;;;;12.10;8.90;;;;;;;23.72;57.67;99821.03;5031575;28;20034;-86
2022/06/04 04:22:48;;;;;;;13.57;8.80;;;;;;;23.29;57.81;99745.72;5030281;28;20494;-86
2022/06/04 04:25:16;;;;;;;11.07;9.40;;;;;;;23.95;57.67;99844.19;5030010;28;20049;-86
2022/06/04 04:27:42;;;;;;;12.85;8.75;;;;;;;23.46;57.51;99779.56;5031338;28;20035;-86
2022/06/04 04:30:11;;;;;;;12.30;9.18;;;;;;;23.78;57.11;99803.03;5031095;28;20104;-86
2022/06/04 04:32:37;;;;;;;10.95;8.75;;;;;;;23.78;57.17;99789.53;5031287;28;20022;-86
2022/06/04 04:35:05;;;;;;;12.18;9.35;;;;;;;23.65;56.99;99763.84;5031143;28;20458;-86
2022/06/04 04:37:31;;;;;;;12.63;9.27;;;;;;;24.13;56.95;99842.13;5031211;28;20089;-86
2022/06/04 04:39:56;;;;;;;10.60;8.68;;;;;;;24.07;56.70;99823.22;5035214;28;20037;-86
2022/06/04 04:42:24;;;;;;;12.90;8.65;;;;;;;24.07;56.91;99830.50;5035165;28;20462;-86
2022/06/04 04:44:49;;;;;;;11.75;8.38;;;;;;;24.09;56.28;99837.25;5035226;28;20453;-86
2022/06/04 04:47:15;;;;;;;13.15;8.50;;;;;;;23.94;56.33;99796.69;5034000;28;20032;-86
2022/06/04 04:49:41;;;;;;;11.13;7.93;;;;;;;23.76;56.55;99768.22;5034333;28;20040;-86
2022/06/04 04:52:06;;;;;;;8.48;7.68;;;;;;;24.35;56.39;99864.44;5035847;28;20052;-86
2022/06/04 04:54:33;;;;;;;10.48;8.20;;;;;;;24.62;56.28;99897.56;5035431;28;20533;-86
2022/06/04 04:56:58;;;;;;;10.93;8.25;;;;;;;23.91;56.24;99775.66;5034282;28;20036;-86
2022/06/04 04:59:24;;;;;;;9.10;7.65;;;;;;;24.31;56.24;99856.06;5035328;28;20038;-86
2022/06/04 05:01:49;;;;;;;10.57;7.80;;;;;;;24.28;56.25;99818.78;5034067;28;20029;-86
2022/06/04 05:04:15;;;;;;;9.30;7.57;;;;;;;24.24;55.86;99804.16;5034072;28;20030;-86
2022/06/04 05:06:40;;;;;;;11.05;7.03;;;;;;;24.69;55.66;99910.81;5034016;28;20502;-86
2022/06/04 05:09:06;;;;;;;7.82;7.03;;;;;;;23.97;55.17;99752.22;5033888;28;20025;-86
2022/06/04 05:11:32;;;;;;;8.98;7.22;;;;;;;24.52;55.13;99827.28;5035139;28;20044;-86
2022/06/04 05:13:59;;;;;;;8.80;6.80;;;;;;;24.99;54.89;99897.50;5035036;28;20026;-86
2022/06/04 05:16:28;;;;;;;10.60;7.40;;;;;;;24.91;55.17;99902.56;5035074;28;20075;-87
2022/06/04 05:18:54;;;;;;;11.13;7.18;;;;;;;23.86;54.64;99735.16;5034875;28;20036;-86
2022/06/04 05:21:22;;;;;;;12.55;7.68;;;;;;;25.06;54.97;99891.84;5035414;28;20085;-86
2022/06/04 05:23:48;;;;;;;8.65;6.85;;;;;;;24.52;54.78;99819.19;5033944;28;20480;-86
2022/06/04 05:26:14;;;;;;;8.48;7.45;;;;;;;24.59;54.61;99817.09;5034912;28;20040;-86
2022/06/04 05:28:39;;;;;;;9.45;7.93;;;;;;;24.61;54.47;99801.44;5033775;28;20033;-86
2022/06/04 05:31:05;;;;;;;10.93;7.85;;;;;;;25.32;54.29;99906.28;5033560;28;20033;-86
2022/06/04 05:33:31;;;;;;;11.95;8.60;;;;;;;25.31;54.15;99912.78;5033447;28;20478;-86
2022/06/04 05:35:56;;;;;;;8.35;7.28;;;;;;;25.28;54.40;99911.41;5033198;28;20029;-86
2022/06/04 05:38:22;;;;;;;10.23;7.82;;;;;;;24.55;54.25;99788.19;5034389;28;20030;-86
2022/06/04 05:40:48;;;;;;;10.13;7.65;;;;;;;25.17;54.76;99879.19;5033306;28;20146;-86
2022/06/04 05:43:13;;;;;;;10.52;7.75;;;;;;;25.06;54.75;99864.03;5034720;28;20497;-86
2022/06/04 05:45:39;;;;;;;9.57;8.57;;;;;;;25.40;54.36;99903.06;5033233;28;20029;-86
2022/06/04 05:48:05;;;;;;;9.45;7.47;;;;;;;24.97;54.41;99826.72;5033252;28;20033;-86
2022/06/04 05:50:30;;;;;;;11.25;7.80;;;;;;;25.50;54.65;99894.16;5032930;28;20049;-86
2022/06/04 05:52:56;;;;;;;11.88;7.97;;;;;;;25.34;54.56;99858.19;5032851;28;20064;-86
2022/06/04 05:55:22;;;;;;;8.63;7.65;;;;;;;24.81;54.35;99756.69;5032876;28;20054;-85
2022/06/04 05:57:48;;;;;;;8.90;7.65;;;;;;;25.73;54.82;99888.28;5033537;28;20033;-84
2022/06/04 06:00:14;;;;;;;8.18;7.38;;;;;;;25.71;54.39;99876.09;5033180;28;20112;-85
2022/06/04 06:02:39;;;;;;;9.75;7.95;;;;;;;25.87;54.14;99888.56;5034532;28;20060;-85
2022/06/04 06:05:05;;;;;;;10.80;6.90;;;;;;;25.95;54.18;99874.47;5034033;28;20456;-85
2022/06/04 06:07:31;;;;;;;7.70;5.95;;;;;;;25.90;53.96;99867.19;5034359;28;20033;-86
2022/06/04 06:09:56;;;;;;;8.90;6.15;;;;;;;25.92;53.23;99861.50;5034002;28;20026;-86
2022/06/04 06:12:22;;;;;;;7.75;6.00;;;;;;;26.17;53.05;99902.09;5034256;28;20029;-86
2022/06/04 06:14:47;;;;;;;10.20;6.50;;;;;;;26.17;53.38;99868.81;5033265;28;20030;-86
2022/06/04 06:17:13;;;;;;;9.68;6.30;;;;;;;25.55;52.92;99761.69;5033263;28;20036;-86
2022/06/04 06:19:38;;;;;;;6.88;6.18;;;;;;;25.60;52.85;99754.38;5033022;28;20017;-87
2022/06/04 06:22:04;;;;;;;7.75;5.95;;;;;;;26.21;52.62;99856.34;5033804;28;20486;-84
2022/06/04 06:24:30;;;;;;;9.10;5.82;;;;;;;25.85;52.28;99766.28;5033746;28;20029;-85
2022/06/04 06:26:58;;;;;;;9.73;6.25;;;;;;;26.58;52.14;99877.69;5032571;28;20044;-85
2022/06/04 06:29:29;;;;;;;5.45;4.90;;;;;;;26.62;52.07;99875.25;5034165;28;20561;-85
2022/06/04 06:31:56;;;;;;;9.88;6.88;;;;;;;26.59;51.90;99872.00;5042568;28;20025;-82
2022/06/04 06:34:22;;;;;;;7.88;6.47;;;;;;;26.21;52.02;99792.22;5052344;28;20033;-84
2022/06/04 06:36:48;;;;;;;9.93;6.85;;;;;;;26.77;52.00;99877.94;5050010;28;20021;-85
2022/06/04 06:39:14;;;;;;;10.18;6.68;;;;;;;26.57;52.06;99854.41;5050702;28;20043;-84
2022/06/04 06:41:40;;;;;;;8.43;7.32;;;;;;;26.68;52.14;99847.06;5050178;28;20025;-84
2022/06/04 06:44:05;;;;;;;9.55;6.70;;;;;;;26.74;52.10;99859.50;5050491;28;20057;-84
2022/06/04 06:46:38;;;;;;;7.88;5.53;;;;;;;26.89;51.89;99876.53;5050428;28;20033;-84
2022/06/04 06:49:08;;;;;;;9.52;6.15;;;;;;;26.54;51.05;99823.28;5034556;28;20021;-85
2022/06/04 06:51:40;;;;;;;11.50;7.00;;;;;;;26.94;51.35;99881.13;5031863;28;20025;-85
2022/06/04 06:54:06;;;;;;;10.48;6.68;;;;;;;26.80;51.38;99855.72;5031522;28;20510;-86
2022/06/04 06:56:35;;;;;;;12.95;7.18;;;;;;;27.00;51.38;99880.03;5032002;28;20053;-85
2022/06/04 06:59:02;;;;;;;8.23;6.57;;;;;;;26.73;51.44;99830.78;5033046;28;20026;-86
2022/06/04 07:01:28;;;;;;;8.50;7.28;;;;;;;26.58;51.56;99820.81;5032504;28;20039;-85
2022/06/04 07:03:55;;;;;;;11.55;6.97;;;;;;;26.54;51.56;99811.63;5032662;28;20021;-85
2022/06/04 07:06:41;;;;;;;10.63;6.60;;;;;;;26.26;51.54;99792.19;5031795;28;20029;-85
2022/06/04 07:09:12;;;;;;;8.80;6.72;;;;;;;27.01;51.66;99861.88;5036137;28;20042;-84
2022/06/04 07:11:38;;;;;;;13.27;6.93;;;;;;;26.92;51.57;99843.47;5042753;28;20029;-84
2022/06/04 07:14:03;;;;;;;7.75;6.55;;;;;;;26.72;51.47;99819.13;5044263;28;20021;-85
2022/06/04 07:16:29;;;;;;;11.45;7.60;;;;;;;27.32;51.62;99881.50;5032415;28;20025;-86
2022/06/04 07:18:54;;;;;;;8.90;6.63;;;;;;;26.91;51.45;99817.44;5031272;28;20037;-87
2022/06/04 07:21:20;;;;;;;11.00;7.07;;;;;;;27.44;51.26;99882.78;5032520;28;20499;-86
2022/06/04 07:23:47;;;;;;;8.38;6.80;;;;;;;27.52;51.53;99884.13;5031113;28;20470;-86
2022/06/04 07:26:13;;;;;;;9.82;7.40;;;;;;;27.36;51.59;99856.25;5031194;28;20048;-86
2022/06/04 07:28:40;;;;;;;17.05;7.35;;;;;;;27.15;51.46;99814.09;5032285;28;20056;-86
2022/06/04 07:31:07;;;;;;;8.85;7.25;;;;;;;27.32;51.44;99854.38;5032226;28;20036;-86
2022/06/04 07:33:32;;;;;;;9.40;7.22;;;;;;;27.06;51.03;99799.50;5032186;28;20028;-86
2022/06/04 07:35:59;;;;;;;11.30;6.72;;;;;;;27.70;51.07;99875.34;5031017;28;20017;-86
2022/06/04 07:38:24;;;;;;;7.90;7.15;;;;;;;27.50;51.00;99830.16;5030836;28;20029;-86
2022/06/04 07:40:50;;;;;;;8.88;6.60;;;;;;;27.21;50.49;99778.53;5031084;28;20026;-86
2022/06/04 07:43:15;;;;;;;11.38;6.95;;;;;;;27.62;50.01;99810.84;5032217;28;20044;-86
2022/06/04 07:45:41;;;;;;;7.20;6.13;;;;;;;28.04;49.89;99859.03;5030704;28;20118;-86
2022/06/04 07:48:07;;;;;;;8.82;7.07;;;;;;;28.09;49.68;99860.88;5030876;28;20028;-86
2022/06/04 07:50:34;;;;;;;10.77;7.47;;;;;;;27.48;49.48;99758.25;5030955;28;20454;-86
2022/06/04 07:53:00;;;;;;;12.07;7.35;;;;;;;27.62;49.45;99772.84;5030782;28;20032;-86
2022/06/04 07:55:26;;;;;;;10.13;7.03;;;;;;;27.68;49.23;99789.91;5030725;28;20041;-86
2022/06/04 07:57:52;;;;;;;8.25;6.72;;;;;;;28.33;48.92;99850.94;5031918;28;20463;-86
2022/06/04 08:00:19;;;;;;;12.40;6.93;;;;;;;28.39;48.60;99847.06;5031838;28;20026;-86
2022/06/04 08:02:46;;;;;;;6.75;6.13;;;;;;;28.02;48.58;99787.13;5030765;28;20028;-86
2022/06/04 08:05:12;;;;;;;8.43;6.32;;;;;;;28.28;48.39;99829.25;5031986;28;20022;-86
2022/06/04 08:07:39;;;;;;;6.97;6.03;;;;;;;27.93;48.19;99761.72;5031957;28;20465;-86
2022/06/04 08:10:06;;;;;;;10.10;5.97;;;;;;;28.35;48.00;99824.28;5030658;28;20821;-86
2022/06/04 08:12:34;;;;;;;7.78;5.55;;;;;;;28.30;47.62;99796.38;5029834;28;20112;-85
2022/06/04 08:15:01;;;;;;;7.35;5.50;;;;;;;28.76;47.26;99853.72;5031926;28;20032;-86
2022/06/04 08:17:26;;;;;;;8.45;6.10;;;;;;;28.40;46.70;99807.13;5030756;28;20461;-86
2022/06/04 08:19:52;;;;;;;10.20;5.65;;;;;;;28.64;46.55;99818.78;5030250;28;20041;-86
2022/06/04 08:22:18;;;;;;;10.60;6.80;;;;;;;29.02;46.77;99868.66;5031670;28;20096;-86
2022/06/04 08:24:47;;;;;;;14.70;9.93;;;;;;;28.98;47.24;99862.16;5030425;28;20116;-86
2022/06/04 08:27:13;;;;;;;10.13;5.72;;;;;;;28.61;46.34;99800.34;5030337;28;20083;-86
2022/06/04 08:29:38;;;;;;;15.50;9.55;;;;;;;28.47;46.16;99786.66;5031558;28;20018;-86
2022/06/04 08:32:04;;;;;;;12.45;8.40;;;;;;;28.74;46.04;99826.81;5030340;28;20031;-86
2022/06/04 08:34:31;;;;;;;9.13;5.90;;;;;;;28.54;45.42;99804.53;5031647;28;20021;-86
2022/06/04 08:36:57;;;;;;;12.63;7.93;;;;;;;28.45;46.10;99785.34;5030647;28;20021;-86
2022/06/04 08:39:23;;;;;;;48.72;28.17;;;;;;;28.91;46.23;99850.00;5031894;28;20052;-86
2022/06/04 08:42:10;;;;;;;15.18;10.55;;;;;;;29.18;45.60;99850.22;5030263;28;20021;-84
2022/06/04 08:44:51;;;;;;;18.15;12.10;;;;;;;28.90;45.63;99818.50;5031581;28;20032;-86
2022/06/04 08:47:19;;;;;;;10.25;6.25;;;;;;;28.77;45.67;99801.78;5030053;28;20121;-84
2022/06/04 08:49:58;;;;;;;6.47;5.68;;;;;;;29.14;45.57;99834.78;5031638;28;20080;-87
2022/06/04 08:52:39;;;;;;;7.63;5.68;;;;;;;29.52;45.40;99846.47;5029901;28;20021;-86
2022/06/04 08:58:24;;;;;;;9.23;5.65;;;;;;;29.96;44.40;99827.00;5031501;28;20091;-85
2022/06/04 09:01:02;;;;;;;9.70;5.68;;;;;;;29.77;44.05;99782.69;5029883;28;20030;-85
2022/06/04 09:03:55;;;;;;;5.80;4.80;;;;;;;30.20;43.41;99818.69;5031493;28;20032;-85
2022/06/04 09:06:42;;;;;;;10.88;5.93;;;;;;;30.11;43.21;99825.94;5030288;28;20017;-85
2022/06/04 09:09:27;;;;;;;7.65;5.30;;;;;;;29.83;43.98;99814.16;5031407;28;20022;-86
2022/06/04 09:11:55;;;;;;;11.35;6.50;;;;;;;29.81;43.42;99767.38;5031554;28;20413;-85
2022/06/04 09:14:44;;;;;;;10.20;5.95;;;;;;;30.35;43.16;99824.66;5031350;28;20108;-85
2022/06/04 09:17:19;;;;;;;8.15;5.03;;;;;;;30.01;42.45;99735.16;5024869;28;20469;-85
2022/06/04 09:19:50;;;;;;;7.05;5.80;;;;;;;30.49;41.79;99753.84;5029932;28;20073;-85
2022/06/04 09:22:22;;;;;;;8.98;4.75;;;;;;;31.21;41.53;99818.56;5029751;28;20033;-85
2022/06/04 09:24:48;;;;;;;8.48;6.60;;;;;;;31.54;41.01;99836.38;5032742;28;20486;-85
2022/06/04 09:27:51;;;;;;;10.30;6.25;;;;;;;31.60;40.79;99807.81;5033685;28;20029;-85
2022/06/04 09:30:23;;;;;;;10.95;8.88;;;;;;;31.40;40.73;99815.69;5034589;28;20024;-85
2022/06/04 09:33:38;;;;;;;10.40;7.05;;;;;;;31.27;40.36;99814.63;5034746;28;20060;-85
2022/06/04 09:36:04;;;;;;;10.85;6.55;;;;;;;31.27;40.39;99766.34;5032284;28;20111;-86
2022/06/04 09:38:32;;;;;;;12.20;7.93;;;;;;;31.59;40.02;99798.03;5033175;28;20486;-86
2022/06/04 09:41:18;;;;;;;6.00;4.97;;;;;;;31.91;39.17;99798.88;5033113;28;20021;-85
2022/06/04 09:43:44;;;;;;;10.05;7.00;;;;;;;32.07;39.26;99800.13;5033206;28;20086;-85
2022/06/04 09:46:10;;;;;;;8.50;6.13;;;;;;;32.07;38.57;99761.06;5032969;28;20402;-85
2022/06/04 09:48:41;;;;;;;11.32;8.57;;;;;;;32.42;38.46;99800.28;5033047;28;20060;-85
2022/06/04 09:51:18;;;;;;;;;;;;;;;32.28;39.01;99791.38;5035213;28;20418;-85
2022/06/04 09:53:56;;;;;;;9.20;6.80;;;;;;;32.01;38.33;99727.63;5033002;28;19913;-85
2022/06/04 09:56:29;;;;;;;10.65;7.55;;;;;;;32.69;37.94;99783.63;5033071;28;20427;-85
2022/06/04 09:59:28;;;;;;;7.63;5.05;;;;;;;32.04;36.20;99641.50;5034478;28;20547;-85
2022/06/04 10:01:56;;;;;;;10.40;5.00;;;;;;;33.04;36.60;99762.63;5034692;28;20510;-85
2022/06/04 10:04:23;;;;;;;15.63;9.40;;;;;;;33.40;36.61;99766.97;5032999;28;20033;-86
2022/06/04 10:06:49;;;;;;;10.50;8.63;;;;;;;33.29;35.63;99714.47;5034056;28;20410;-86
2022/06/04 10:12:03;;;;;;;12.20;7.38;;;;;;;33.47;35.30;99716.13;5034008;28;20086;-85
2022/06/04 10:14:37;;;;;;;6.18;4.68;;;;;;;33.00;34.95;99633.09;5032359;28;20018;-85
2022/06/04 10:17:23;;;;;;;15.13;6.18;;;;;;;33.37;34.38;99661.69;5032236;28;20025;-85
2022/06/04 10:19:54;;;;;;;13.90;7.60;;;;;;;34.13;33.85;99758.75;5033193;28;20037;-85
2022/06/04 10:22:20;;;;;;;10.05;8.43;;;;;;;33.85;33.22;99717.31;5033311;28;20033;-85
2022/06/04 10:24:55;;;;;;;11.57;4.93;;;;;;;34.17;32.46;99755.03;5033494;28;20037;-85
2022/06/04 10:27:50;;;;;;;6.03;4.57;;;;;;;34.45;31.86;99749.13;5033421;28;20033;-85
2022/06/04 10:30:53;;;;;;;10.95;8.88;;;;;;;34.24;32.05;99692.31;5033280;28;20022;-85
2022/06/04 10:33:36;;;;;;;4.50;3.90;;;;;;;34.07;31.94;99734.28;5033094;28;20115;-85
2022/06/04 10:36:36;;;;;;;5.60;3.97;;;;;;;33.86;32.21;99699.75;5031012;28;20120;-84
2022/06/04 10:39:07;;;;;;;6.95;3.63;;;;;;;33.55;31.77;99647.97;5032928;28;20026;-85
2022/06/04 10:42:17;;;;;;;4.90;4.05;;;;;;;32.97;32.35;99581.78;5033117;28;20029;-84
2022/06/04 10:44:58;;;;;;;7.05;4.35;;;;;;;34.26;32.67;99739.38;5011278;28;20068;-85
2022/06/04 10:47:54;;;;;;;6.70;4.85;;;;;;;34.58;32.22;99718.72;5030893;28;20038;-85
2022/06/04 10:50:31;;;;;;;6.82;4.70;;;;;;;34.65;32.43;99732.72;5031546;28;20037;-85
2022/06/04 10:53:19;;;;;;;5.43;4.30;;;;;;;34.14;32.46;99664.44;5033518;28;20026;-85
2022/06/04 10:55:50;;;;;;;7.18;3.92;;;;;;;34.02;32.38;99679.66;5032101;28;20045;-86
2022/06/04 10:58:36;;;;;;;8.15;4.50;;;;;;;34.49;32.00;99723.47;5033602;28;20026;-85
2022/06/04 11:01:14;;;;;;;7.07;4.75;;;;;;;34.17;32.35;99724.09;5032085;28;20529;-85
2022/06/04 11:04:01;;;;;;;14.38;6.68;;;;;;;33.80;32.53;99712.78;5033203;28;20033;-85
2022/06/04 11:06:39;;;;;;;7.53;6.35;;;;;;;33.86;32.10;99680.56;5031348;28;20491;-85
2022/06/04 11:09:12;;;;;;;6.45;4.90;;;;;;;34.53;31.33;99696.97;5032817;28;20068;-85
2022/06/04 11:11:43;;;;;;;8.07;3.78;;;;;;;34.11;30.77;99576.28;5031218;28;20029;-85
2022/06/04 11:14:24;;;;;;;8.32;5.00;;;;;;;34.45;31.35;99610.13;5032341;28;20033;-85
2022/06/04 11:16:56;;;;;;;7.93;6.20;;;;;;;35.08;30.23;99643.78;5032426;28;20030;-85
2022/06/04 11:19:45;;;;;;;7.70;4.00;;;;;;;35.47;29.51;99669.06;5032247;28;20029;-86
2022/06/04 11:22:23;;;;;;;11.38;3.97;;;;;;;35.83;29.37;99676.59;5030785;28;20029;-85
2022/06/04 11:25:09;;;;;;;5.82;3.90;;;;;;;35.90;28.77;99674.06;5032862;28;20384;-85
2022/06/04 11:27:41;;;;;;;5.50;3.67;;;;;;;35.23;29.08;99625.88;5030670;28;20037;-85
2022/06/04 11:30:16;;;;;;;4.75;3.45;;;;;;;35.75;29.06;99675.53;5031074;28;20029;-85
2022/06/04 11:32:56;;;;;;;7.07;3.53;;;;;;;35.76;28.42;99673.59;5031063;28;20103;-85
2022/06/04 11:35:45;;;;;;;6.65;4.13;;;;;;;35.84;29.04;99664.47;5042070;28;20077;-85
2022/06/04 11:38:30;;;;;;;6.43;3.65;;;;;;;35.75;28.57;99606.03;5043820;28;20064;-84
2022/06/04 11:41:04;;;;;;;6.90;4.10;;;;;;;36.32;28.28;99663.63;5039825;28;20067;-85
2022/06/04 11:43:51;;;;;;;7.45;3.78;;;;;;;36.22;28.28;99629.16;5032457;28;20025;-85
2022/06/04 11:46:41;;;;;;;5.53;3.42;;;;;;;36.66;26.66;99658.75;5030917;28;20029;-85
2022/06/04 11:49:24;;;;;;;5.50;3.00;;;;;;;36.57;27.45;99650.66;5031141;28;20109;-85
2022/06/04 11:51:56;;;;;;;5.43;4.05;;;;;;;36.72;27.09;99649.91;5031932;28;20033;-85
2022/06/04 11:54:52;;;;;;;4.80;2.85;;;;;;;36.50;26.65;99578.94;5031718;28;20494;-85
2022/06/04 11:57:37;;;;;;;6.13;3.28;;;;;;;36.74;26.19;99650.34;5031628;28;20107;-85
2022/06/04 12:00:26;;;;;;;6.63;3.47;;;;;;;35.76;26.27;99537.03;5030647;28;20426;-85
2022/06/04 12:03:32;;;;;;;4.22;3.00;;;;;;;36.64;26.03;99617.03;5031941;28;20022;-85
2022/06/04 12:06:30;;;;;;;4.60;3.83;;;;;;;36.83;26.96;99623.50;5031940;28;20094;-84